sensor_id;sensor_type;location;lat;lon;timestamp;pressure;altitude;pressure_sealevel;temperature;humidity
70506;BME280;58032;49.820;6.274;2023-03-29T00:00:05;97835.66;;;2.78;100.00
70506;BME280;58032;49.820;6.274;2023-03-29T00:02:40;97831.69;;;2.79;100.00
70506;BME280;58032;49.820;6.274;2023-03-29T00:05:08;97832.84;;;2.85;100.00
70506;BME280;58032;49.820;6.274;2023-03-29T00:07:35;97843.59;;;2.83;100.00
70506;BME280;58032;49.820;6.274;2023-03-29T00:10:03;97821.72;;;2.85;100.00
70506;BME280;58032;49.820;6.274;2023-03-29T00:12:30;97822.88;;;2.91;100.00
70506;BME280;58032;49.820;6.274;2023-03-29T00:14:57;97821.31;;;2.90;100.00
70506;BME280;58032;49.820;6.274;2023-03-29T00:17:24;97820.91;;;2.95;100.00
70506;BME280;58032;49.820;6.274;2023-03-29T00:19:51;97822.88;;;3.02;100.00
70506;BME280;58032;49.820;6.274;2023-03-29T00:22:18;97825.28;;;2.96;100.00
70506;BME280;58032;49.820;6.274;2023-03-29T00:24:45;97821.34;;;2.87;100.00
70506;BME280;58032;49.820;6.274;2023-03-29T00:27:15;97818.19;;;2.77;100.00
70506;BME280;58032;49.820;6.274;2023-03-29T00:29:42;97817.78;;;2.72;100.00
70506;BME280;58032;49.820;6.274;2023-03-29T00:32:09;97814.25;;;2.67;100.00
70506;BME280;58032;49.820;6.274;2023-03-29T00:34:36;97810.63;;;2.71;100.00
70506;BME280;58032;49.820;6.274;2023-03-29T00:37:08;97806.69;;;2.68;100.00
70506;BME280;58032;49.820;6.274;2023-03-29T00:39:35;97802.31;;;2.71;100.00
70506;BME280;58032;49.820;6.274;2023-03-29T00:42:02;97803.50;;;2.69;100.00
70506;BME280;58032;49.820;6.274;2023-03-29T00:47:27;97800.69;;;2.77;100.00
70506;BME280;58032;49.820;6.274;2023-03-29T00:49:58;97806.22;;;2.84;100.00
70506;BME280;58032;49.820;6.274;2023-03-29T00:52:29;97803.09;;;2.78;100.00
70506;BME280;58032;49.820;6.274;2023-03-29T00:55:01;97806.66;;;2.79;100.00
70506;BME280;58032;49.820;6.274;2023-03-29T00:57:31;97794.34;;;2.80;100.00
70506;BME280;58032;49.820;6.274;2023-03-29T01:00:00;97798.31;;;2.75;100.00
70506;BME280;58032;49.820;6.274;2023-03-29T01:02:31;97787.19;;;2.75;100.00
70506;BME280;58032;49.820;6.274;2023-03-29T01:05:07;97780.44;;;2.80;100.00
70506;BME280;58032;49.820;6.274;2023-03-29T01:11:56;97779.22;;;2.88;100.00
70506;BME280;58032;49.820;6.274;2023-03-29T01:14:40;97775.22;;;2.93;100.00
70506;BME280;58032;49.820;6.274;2023-03-29T01:17:10;97774.03;;;2.97;100.00
70506;BME280;58032;49.820;6.274;2023-03-29T01:19:46;97770.44;;;2.93;100.00
70506;BME280;58032;49.820;6.274;2023-03-29T01:25:25;97761.69;;;2.91;100.00
70506;BME280;58032;49.820;6.274;2023-03-29T01:28:09;97764.06;;;3.04;100.00
70506;BME280;58032;49.820;6.274;2023-03-29T01:30:41;97746.53;;;3.07;100.00
70506;BME280;58032;49.820;6.274;2023-03-29T01:33:21;97747.72;;;3.13;100.00
70506;BME280;58032;49.820;6.274;2023-03-29T01:36:01;97745.31;;;3.11;100.00
70506;BME280;58032;49.820;6.274;2023-03-29T01:39:04;97738.63;;;3.01;100.00
70506;BME280;58032;49.820;6.274;2023-03-29T01:44:10;97742.63;;;2.97;100.00
70506;BME280;58032;49.820;6.274;2023-03-29T01:46:44;97739.84;;;2.97;100.00
70506;BME280;58032;49.820;6.274;2023-03-29T01:49:19;97740.19;;;3.06;100.00
70506;BME280;58032;49.820;6.274;2023-03-29T01:51:55;97737.81;;;3.05;100.00
70506;BME280;58032;49.820;6.274;2023-03-29T01:54:29;97736.66;;;2.98;100.00
70506;BME280;58032;49.820;6.274;2023-03-29T01:56:57;97737.00;;;3.08;100.00
70506;BME280;58032;49.820;6.274;2023-03-29T01:59:28;97732.59;;;3.17;100.00
70506;BME280;58032;49.820;6.274;2023-03-29T02:02:00;97721.81;;;3.20;100.00
70506;BME280;58032;49.820;6.274;2023-03-29T02:04:31;97726.50;;;3.37;100.00
70506;BME280;58032;49.820;6.274;2023-03-29T02:07:02;97724.09;;;3.43;100.00
70506;BME280;58032;49.820;6.274;2023-03-29T02:09:31;97722.88;;;3.44;100.00
70506;BME280;58032;49.820;6.274;2023-03-29T02:12:05;97722.53;;;3.35;100.00
70506;BME280;58032;49.820;6.274;2023-03-29T02:14:32;97714.25;;;3.27;100.00
70506;BME280;58032;49.820;6.274;2023-03-29T02:17:20;97719.31;;;3.40;100.00
70506;BME280;58032;49.820;6.274;2023-03-29T02:19:52;97722.47;;;3.45;100.00
70506;BME280;58032;49.820;6.274;2023-03-29T02:22:27;97712.13;;;3.46;100.00
70506;BME280;58032;49.820;6.274;2023-03-29T02:24:56;97711.22;;;3.60;100.00
70506;BME280;58032;49.820;6.274;2023-03-29T02:27:26;97716.41;;;3.58;100.00
70506;BME280;58032;49.820;6.274;2023-03-29T02:29:56;97704.09;;;3.55;100.00
70506;BME280;58032;49.820;6.274;2023-03-29T02:32:25;97704.94;;;3.52;100.00
70506;BME280;58032;49.820;6.274;2023-03-29T02:35:30;97698.63;;;3.44;100.00
70506;BME280;58032;49.820;6.274;2023-03-29T02:38:02;97705.44;;;3.36;100.00
70506;BME280;58032;49.820;6.274;2023-03-29T02:40:31;97707.88;;;3.23;100.00
70506;BME280;58032;49.820;6.274;2023-03-29T02:43:00;97701.19;;;3.17;100.00
70506;BME280;58032;49.820;6.274;2023-03-29T02:45:28;97705.09;;;3.23;100.00
70506;BME280;58032;49.820;6.274;2023-03-29T02:48:00;97689.97;;;3.28;100.00
70506;BME280;58032;49.820;6.274;2023-03-29T02:50:34;97698.72;;;3.30;100.00
70506;BME280;58032;49.820;6.274;2023-03-29T02:53:08;97705.03;;;3.34;100.00
70506;BME280;58032;49.820;6.274;2023-03-29T02:55:39;97700.69;;;3.33;100.00
70506;BME280;58032;49.820;6.274;2023-03-29T02:58:06;97695.09;;;3.37;100.00
70506;BME280;58032;49.820;6.274;2023-03-29T03:00:36;97693.06;;;3.41;100.00
70506;BME280;58032;49.820;6.274;2023-03-29T03:03:05;97699.06;;;3.39;100.00
70506;BME280;58032;49.820;6.274;2023-03-29T03:05:33;97687.13;;;3.35;100.00
70506;BME280;58032;49.820;6.274;2023-03-29T03:08:01;97680.34;;;3.40;100.00
70506;BME280;58032;49.820;6.274;2023-03-29T03:10:28;97682.75;;;3.38;100.00
70506;BME280;58032;49.820;6.274;2023-03-29T03:12:56;97678.75;;;3.42;100.00
70506;BME280;58032;49.820;6.274;2023-03-29T03:15:23;97678.31;;;3.47;100.00
70506;BME280;58032;49.820;6.274;2023-03-29T03:17:52;97684.22;;;3.53;100.00
70506;BME280;58032;49.820;6.274;2023-03-29T03:20:20;97678.59;;;3.60;100.00
70506;BME280;58032;49.820;6.274;2023-03-29T03:22:49;97679.38;;;3.64;100.00
70506;BME280;58032;49.820;6.274;2023-03-29T03:25:19;97682.53;;;3.67;100.00
70506;BME280;58032;49.820;6.274;2023-03-29T03:27:48;97678.09;;;3.73;100.00
70506;BME280;58032;49.820;6.274;2023-03-29T03:30:18;97668.94;;;3.72;100.00
70506;BME280;58032;49.820;6.274;2023-03-29T03:32:55;97664.22;;;3.69;100.00
70506;BME280;58032;49.820;6.274;2023-03-29T03:35:51;97657.81;;;3.72;100.00
70506;BME280;58032;49.820;6.274;2023-03-29T03:38:18;97672.59;;;3.66;100.00
70506;BME280;58032;49.820;6.274;2023-03-29T03:40:53;97669.78;;;3.69;100.00
70506;BME280;58032;49.820;6.274;2023-03-29T03:43:21;97662.59;;;3.72;100.00
70506;BME280;58032;49.820;6.274;2023-03-29T03:45:49;97658.88;;;3.89;100.00
70506;BME280;58032;49.820;6.274;2023-03-29T03:48:20;97662.41;;;3.93;100.00
70506;BME280;58032;49.820;6.274;2023-03-29T03:51:06;97658.06;;;3.89;100.00
70506;BME280;58032;49.820;6.274;2023-03-29T03:53:34;97662.50;;;3.83;100.00
70506;BME280;58032;49.820;6.274;2023-03-29T03:56:13;97663.31;;;3.83;100.00
70506;BME280;58032;49.820;6.274;2023-03-29T03:59:04;97664.50;;;3.82;100.00
70506;BME280;58032;49.820;6.274;2023-03-29T04:01:57;97665.66;;;3.85;100.00
70506;BME280;58032;49.820;6.274;2023-03-29T04:04:25;97678.03;;;3.80;100.00
70506;BME280;58032;49.820;6.274;2023-03-29T04:06:59;97660.16;;;3.77;100.00
70506;BME280;58032;49.820;6.274;2023-03-29T04:09:32;97659.75;;;3.79;100.00
70506;BME280;58032;49.820;6.274;2023-03-29T04:12:13;97664.09;;;3.84;100.00
70506;BME280;58032;49.820;6.274;2023-03-29T04:14:41;97656.97;;;3.79;100.00
70506;BME280;58032;49.820;6.274;2023-03-29T04:17:14;97653.75;;;3.80;100.00
70506;BME280;58032;49.820;6.274;2023-03-29T04:19:48;97653.25;;;3.93;100.00
70506;BME280;58032;49.820;6.274;2023-03-29T04:22:15;97651.19;;;4.01;100.00
70506;BME280;58032;49.820;6.274;2023-03-29T04:24:42;97648.78;;;4.03;100.00
70506;BME280;58032;49.820;6.274;2023-03-29T04:27:28;97647.56;;;4.04;100.00
70506;BME280;58032;49.820;6.274;2023-03-29T04:29:55;97653.06;;;4.11;100.00
70506;BME280;58032;49.820;6.274;2023-03-29T04:32:33;97645.44;;;4.15;100.00
70506;BME280;58032;49.820;6.274;2023-03-29T04:35:08;97647.47;;;4.15;100.00
70506;BME280;58032;49.820;6.274;2023-03-29T04:37:35;97645.53;;;4.08;100.00
70506;BME280;58032;49.820;6.274;2023-03-29T04:40:08;97637.94;;;4.12;100.00
70506;BME280;58032;49.820;6.274;2023-03-29T04:42:48;97639.88;;;4.15;100.00
70506;BME280;58032;49.820;6.274;2023-03-29T04:45:15;97639.13;;;4.11;100.00
70506;BME280;58032;49.820;6.274;2023-03-29T04:48:02;97648.00;;;3.99;100.00
70506;BME280;58032;49.820;6.274;2023-03-29T04:50:29;97642.06;;;3.96;100.00
70506;BME280;58032;49.820;6.274;2023-03-29T04:52:57;97651.19;;;4.01;100.00
70506;BME280;58032;49.820;6.274;2023-03-29T04:55:27;97658.38;;;3.98;100.00
70506;BME280;58032;49.820;6.274;2023-03-29T04:57:59;97646.88;;;3.92;100.00
70506;BME280;58032;49.820;6.274;2023-03-29T05:00:32;97645.75;;;3.86;100.00
70506;BME280;58032;49.820;6.274;2023-03-29T05:03:21;97649.38;;;3.83;100.00
70506;BME280;58032;49.820;6.274;2023-03-29T05:05:54;97644.13;;;3.89;100.00
70506;BME280;58032;49.820;6.274;2023-03-29T05:08:21;97645.72;;;3.90;100.00
70506;BME280;58032;49.820;6.274;2023-03-29T05:11:07;97653.66;;;3.91;100.00
70506;BME280;58032;49.820;6.274;2023-03-29T05:13:36;97650.06;;;3.94;100.00
70506;BME280;58032;49.820;6.274;2023-03-29T05:16:03;97659.16;;;3.99;100.00
70506;BME280;58032;49.820;6.274;2023-03-29T05:18:30;97657.56;;;4.01;100.00
70506;BME280;58032;49.820;6.274;2023-03-29T05:20:58;97663.09;;;4.05;100.00
70506;BME280;58032;49.820;6.274;2023-03-29T05:23:26;97659.91;;;4.03;100.00
70506;BME280;58032;49.820;6.274;2023-03-29T05:26:21;97665.47;;;4.06;100.00
70506;BME280;58032;49.820;6.274;2023-03-29T05:28:51;97670.94;;;4.14;100.00
70506;BME280;58032;49.820;6.274;2023-03-29T05:31:18;97669.88;;;4.04;100.00
70506;BME280;58032;49.820;6.274;2023-03-29T05:33:50;97675.78;;;4.09;100.00
70506;BME280;58032;49.820;6.274;2023-03-29T05:36:18;97657.41;;;4.16;100.00
70506;BME280;58032;49.820;6.274;2023-03-29T05:38:47;97658.19;;;4.16;100.00
70506;BME280;58032;49.820;6.274;2023-03-29T05:41:16;97655.84;;;4.11;100.00
70506;BME280;58032;49.820;6.274;2023-03-29T05:43:46;97655.41;;;4.16;100.00
70506;BME280;58032;49.820;6.274;2023-03-29T05:46:14;97654.53;;;4.23;100.00
70506;BME280;58032;49.820;6.274;2023-03-29T05:48:47;97664.56;;;4.17;100.00
70506;BME280;58032;49.820;6.274;2023-03-29T05:51:15;97657.75;;;4.21;100.00
70506;BME280;58032;49.820;6.274;2023-03-29T05:53:44;97661.22;;;4.29;100.00
70506;BME280;58032;49.820;6.274;2023-03-29T05:56:11;97664.72;;;4.37;100.00
70506;BME280;58032;49.820;6.274;2023-03-29T05:58:41;97654.88;;;4.28;100.00
70506;BME280;58032;49.820;6.274;2023-03-29T06:01:12;97654.06;;;4.28;100.00
70506;BME280;58032;49.820;6.274;2023-03-29T06:03:53;97660.13;;;4.57;100.00
70506;BME280;58032;49.820;6.274;2023-03-29T06:06:25;97660.34;;;4.39;100.00
70506;BME280;58032;49.820;6.274;2023-03-29T06:08:52;97652.31;;;4.41;100.00
70506;BME280;58032;49.820;6.274;2023-03-29T06:11:27;97658.44;;;4.64;100.00
70506;BME280;58032;49.820;6.274;2023-03-29T06:14:13;97655.28;;;4.62;100.00
70506;BME280;58032;49.820;6.274;2023-03-29T06:16:59;97662.28;;;4.73;100.00
70506;BME280;58032;49.820;6.274;2023-03-29T06:19:27;97663.25;;;4.90;100.00
70506;BME280;58032;49.820;6.274;2023-03-29T06:21:54;97665.97;;;4.98;100.00
70506;BME280;58032;49.820;6.274;2023-03-29T06:24:24;97672.28;;;5.02;100.00
70506;BME280;58032;49.820;6.274;2023-03-29T06:26:59;97669.06;;;5.03;100.00
70506;BME280;58032;49.820;6.274;2023-03-29T06:29:28;97664.41;;;5.24;100.00
70506;BME280;58032;49.820;6.274;2023-03-29T06:31:54;97663.22;;;5.49;100.00
70506;BME280;58032;49.820;6.274;2023-03-29T06:34:44;97665.81;;;5.60;100.00
70506;BME280;58032;49.820;6.274;2023-03-29T06:37:27;97670.16;;;5.37;100.00
70506;BME280;58032;49.820;6.274;2023-03-29T06:40:07;97666.94;;;5.66;100.00
70506;BME280;58032;49.820;6.274;2023-03-29T06:42:41;97672.16;;;5.64;100.00
70506;BME280;58032;49.820;6.274;2023-03-29T06:45:31;97668.47;;;5.70;100.00
70506;BME280;58032;49.820;6.274;2023-03-29T06:48:02;97667.16;;;5.75;100.00
70506;BME280;58032;49.820;6.274;2023-03-29T06:50:30;97659.59;;;5.76;100.00
70506;BME280;58032;49.820;6.274;2023-03-29T06:53:09;97665.63;;;5.74;100.00
70506;BME280;58032;49.820;6.274;2023-03-29T06:55:38;97668.75;;;5.76;100.00
70506;BME280;58032;49.820;6.274;2023-03-29T06:58:27;97670.16;;;5.88;100.00
70506;BME280;58032;49.820;6.274;2023-03-29T07:00:59;97667.66;;;5.94;100.00
70506;BME280;58032;49.820;6.274;2023-03-29T07:03:37;97659.09;;;5.81;100.00
70506;BME280;58032;49.820;6.274;2023-03-29T07:06:05;97663.34;;;5.89;100.00
70506;BME280;58032;49.820;6.274;2023-03-29T07:08:39;97662.91;;;5.91;100.00
70506;BME280;58032;49.820;6.274;2023-03-29T07:11:17;97661.84;;;6.08;100.00
70506;BME280;58032;49.820;6.274;2023-03-29T07:13:55;97660.38;;;6.44;100.00
70506;BME280;58032;49.820;6.274;2023-03-29T07:16:22;97666.63;;;6.31;100.00
70506;BME280;58032;49.820;6.274;2023-03-29T07:19:15;97665.19;;;6.23;100.00
70506;BME280;58032;49.820;6.274;2023-03-29T07:21:54;97666.09;;;6.16;100.00
70506;BME280;58032;49.820;6.274;2023-03-29T07:24:32;97669.34;;;6.35;100.00
70506;BME280;58032;49.820;6.274;2023-03-29T07:26:59;97677.94;;;6.44;100.00
70506;BME280;58032;49.820;6.274;2023-03-29T07:29:29;97682.53;;;6.55;100.00
70506;BME280;58032;49.820;6.274;2023-03-29T07:31:56;97683.75;;;6.74;100.00
70506;BME280;58032;49.820;6.274;2023-03-29T07:34:43;97689.06;;;6.88;100.00
70506;BME280;58032;49.820;6.274;2023-03-29T07:37:18;97692.09;;;6.57;100.00
70506;BME280;58032;49.820;6.274;2023-03-29T07:39:46;97692.16;;;6.54;100.00
70506;BME280;58032;49.820;6.274;2023-03-29T07:42:36;97698.97;;;6.53;100.00
70506;BME280;58032;49.820;6.274;2023-03-29T07:45:04;97689.13;;;6.44;100.00
70506;BME280;58032;49.820;6.274;2023-03-29T07:47:42;97688.66;;;6.49;100.00
70506;BME280;58032;49.820;6.274;2023-03-29T07:50:09;97689.22;;;6.61;100.00
70506;BME280;58032;49.820;6.274;2023-03-29T07:52:38;97685.41;;;6.71;100.00
70506;BME280;58032;49.820;6.274;2023-03-29T07:55:07;97692.09;;;6.57;100.00
70506;BME280;58032;49.820;6.274;2023-03-29T07:57:50;97694.09;;;6.57;100.00
70506;BME280;58032;49.820;6.274;2023-03-29T08:00:18;97699.47;;;7.08;100.00
70506;BME280;58032;49.820;6.274;2023-03-29T08:03:00;97696.25;;;6.89;100.00
70506;BME280;58032;49.820;6.274;2023-03-29T08:05:30;97693.06;;;7.07;100.00
70506;BME280;58032;49.820;6.274;2023-03-29T08:08:08;97694.50;;;6.95;100.00
70506;BME280;58032;49.820;6.274;2023-03-29T08:10:49;97697.59;;;7.01;100.00
70506;BME280;58032;49.820;6.274;2023-03-29T08:13:43;97684.44;;;6.98;100.00
70506;BME280;58032;49.820;6.274;2023-03-29T08:16:25;97691.47;;;7.06;100.00
70506;BME280;58032;49.820;6.274;2023-03-29T08:19:06;97685.91;;;7.23;100.00
70506;BME280;58032;49.820;6.274;2023-03-29T08:21:52;97687.06;;;7.25;100.00
70506;BME280;58032;49.820;6.274;2023-03-29T08:24:22;97690.09;;;7.15;100.00
70506;BME280;58032;49.820;6.274;2023-03-29T08:26:54;97692.44;;;7.53;100.00
70506;BME280;58032;49.820;6.274;2023-03-29T08:29:23;97699.28;;;8.01;100.00
70506;BME280;58032;49.820;6.274;2023-03-29T08:32:01;97692.97;;;7.97;100.00
70506;BME280;58032;49.820;6.274;2023-03-29T08:34:28;97702.97;;;7.82;100.00
70506;BME280;58032;49.820;6.274;2023-03-29T08:37:13;97699.28;;;7.68;100.00
70506;BME280;58032;49.820;6.274;2023-03-29T08:39:44;97695.25;;;7.86;100.00
70506;BME280;58032;49.820;6.274;2023-03-29T08:42:55;97691.19;;;8.20;100.00
70506;BME280;58032;49.820;6.274;2023-03-29T08:48:38;97680.44;;;8.02;100.00
70506;BME280;58032;49.820;6.274;2023-03-29T08:51:36;97667.00;;;8.26;100.00
70506;BME280;58032;49.820;6.274;2023-03-29T08:54:10;97675.56;;;8.94;100.00
70506;BME280;58032;49.820;6.274;2023-03-29T08:57:09;97664.78;;;9.18;100.00
70506;BME280;58032;49.820;6.274;2023-03-29T08:59:43;97666.94;;;9.14;100.00
70506;BME280;58032;49.820;6.274;2023-03-29T09:02:16;97672.00;;;9.19;100.00
70506;BME280;58032;49.820;6.274;2023-03-29T09:04:49;97669.63;;;8.63;100.00
70506;BME280;58032;49.820;6.274;2023-03-29T09:07:44;97667.56;;;8.80;100.00
70506;BME280;58032;49.820;6.274;2023-03-29T09:10:17;97658.28;;;8.66;100.00
70506;BME280;58032;49.820;6.274;2023-03-29T09:12:59;97664.25;;;8.68;100.00
70506;BME280;58032;49.820;6.274;2023-03-29T09:15:51;97659.69;;;8.87;100.00
70506;BME280;58032;49.820;6.274;2023-03-29T09:18:40;97657.75;;;8.71;100.00
70506;BME280;58032;49.820;6.274;2023-03-29T09:21:21;97649.91;;;8.79;100.00
70506;BME280;58032;49.820;6.274;2023-03-29T09:24:02;97653.63;;;8.89;100.00
70506;BME280;58032;49.820;6.274;2023-03-29T09:26:53;97656.66;;;9.98;100.00
70506;BME280;58032;49.820;6.274;2023-03-29T09:32:52;97633.03;;;10.75;100.00
70506;BME280;58032;49.820;6.274;2023-03-29T09:35:33;97625.59;;;10.59;100.00
70506;BME280;58032;49.820;6.274;2023-03-29T09:38:04;97618.78;;;10.47;100.00
70506;BME280;58032;49.820;6.274;2023-03-29T09:40:48;97636.44;;;10.48;100.00
70506;BME280;58032;49.820;6.274;2023-03-29T09:43:40;97632.00;;;11.13;100.00
70506;BME280;58032;49.820;6.274;2023-03-29T09:46:26;97628.03;;;11.42;100.00
70506;BME280;58032;49.820;6.274;2023-03-29T09:48:55;97634.91;;;11.32;100.00
70506;BME280;58032;49.820;6.274;2023-03-29T09:51:25;97631.03;;;11.07;100.00
70506;BME280;58032;49.820;6.274;2023-03-29T09:53:55;97629.09;;;11.26;100.00
70506;BME280;58032;49.820;6.274;2023-03-29T09:56:41;97630.81;;;11.74;100.00
70506;BME280;58032;49.820;6.274;2023-03-29T09:59:13;97627.44;;;11.97;100.00
70506;BME280;58032;49.820;6.274;2023-03-29T10:01:41;97621.81;;;12.16;100.00
70506;BME280;58032;49.820;6.274;2023-03-29T10:04:12;97620.72;;;12.13;100.00
70506;BME280;58032;49.820;6.274;2023-03-29T10:06:46;97620.06;;;12.18;100.00
70506;BME280;58032;49.820;6.274;2023-03-29T10:09:20;97618.50;;;12.27;100.00
70506;BME280;58032;49.820;6.274;2023-03-29T10:11:55;97632.41;;;11.93;100.00
70506;BME280;58032;49.820;6.274;2023-03-29T10:14:36;97630.13;;;12.29;100.00
70506;BME280;58032;49.820;6.274;2023-03-29T10:17:14;97629.44;;;11.87;100.00
70506;BME280;58032;49.820;6.274;2023-03-29T10:20:00;97630.75;;;12.42;100.00
70506;BME280;58032;49.820;6.274;2023-03-29T10:22:34;97625.72;;;12.28;100.00
70506;BME280;58032;49.820;6.274;2023-03-29T10:25:08;97635.66;;;11.73;100.00
70506;BME280;58032;49.820;6.274;2023-03-29T10:27:40;97617.41;;;12.24;100.00
70506;BME280;58032;49.820;6.274;2023-03-29T10:30:09;97623.06;;;12.43;100.00
70506;BME280;58032;49.820;6.274;2023-03-29T10:32:38;97626.34;;;12.04;100.00
70506;BME280;58032;49.820;6.274;2023-03-29T10:35:20;97624.16;;;12.36;100.00
70506;BME280;58032;49.820;6.274;2023-03-29T10:37:51;97619.13;;;12.77;100.00
70506;BME280;58032;49.820;6.274;2023-03-29T10:40:21;97608.16;;;12.51;100.00
70506;BME280;58032;49.820;6.274;2023-03-29T10:42:51;97614.72;;;11.93;100.00
70506;BME280;58032;49.820;6.274;2023-03-29T10:45:24;97613.13;;;11.32;100.00
70506;BME280;58032;49.820;6.274;2023-03-29T10:47:54;97610.28;;;11.82;100.00
70506;BME280;58032;49.820;6.274;2023-03-29T10:50:22;97615.03;;;11.95;100.00
70506;BME280;58032;49.820;6.274;2023-03-29T10:52:49;97603.84;;;11.63;100.00
70506;BME280;58032;49.820;6.274;2023-03-29T10:55:16;97603.53;;;11.70;100.00
70506;BME280;58032;49.820;6.274;2023-03-29T11:00:36;97588.25;;;12.18;100.00
70506;BME280;58032;49.820;6.274;2023-03-29T11:03:24;97594.34;;;12.35;100.00
70506;BME280;58032;49.820;6.274;2023-03-29T11:06:42;97593.13;;;12.17;100.00
70506;BME280;58032;49.820;6.274;2023-03-29T11:08:53;97592.50;;;12.13;100.00
70506;BME280;58032;49.820;6.274;2023-03-29T11:11:59;97596.22;;;11.92;100.00
70506;BME280;58032;49.820;6.274;2023-03-29T11:14:51;97598.59;;;12.02;100.00
70506;BME280;58032;49.820;6.274;2023-03-29T11:17:51;97597.50;;;12.28;100.00
70506;BME280;58032;49.820;6.274;2023-03-29T11:20:27;97591.13;;;12.98;100.00
70506;BME280;58032;49.820;6.274;2023-03-29T11:25:59;97582.69;;;13.89;100.00
70506;BME280;58032;49.820;6.274;2023-03-29T11:28:40;97575.50;;;13.79;100.00
70506;BME280;58032;49.820;6.274;2023-03-29T11:31:39;97570.75;;;13.27;100.00
70506;BME280;58032;49.820;6.274;2023-03-29T11:37:28;97566.91;;;13.73;100.00
70506;BME280;58032;49.820;6.274;2023-03-29T11:40:04;97567.59;;;13.83;100.00
70506;BME280;58032;49.820;6.274;2023-03-29T11:42:38;97558.22;;;14.01;100.00
70506;BME280;58032;49.820;6.274;2023-03-29T11:45:14;97563.66;;;13.90;100.00
70506;BME280;58032;49.820;6.274;2023-03-29T11:47:45;97562.97;;;13.47;100.00
70506;BME280;58032;49.820;6.274;2023-03-29T11:50:15;97565.31;;;13.72;100.00
70506;BME280;58032;49.820;6.274;2023-03-29T11:52:53;97569.38;;;13.56;100.00
70506;BME280;58032;49.820;6.274;2023-03-29T11:55:25;97570.03;;;13.08;100.00
70506;BME280;58032;49.820;6.274;2023-03-29T11:58:00;97570.31;;;13.10;100.00
70506;BME280;58032;49.820;6.274;2023-03-29T12:00:30;97571.88;;;13.21;100.00
70506;BME280;58032;49.820;6.274;2023-03-29T12:03:05;97575.16;;;12.76;100.00
70506;BME280;58032;49.820;6.274;2023-03-29T12:05:38;97570.34;;;12.58;100.00
70506;BME280;58032;49.820;6.274;2023-03-29T12:08:15;97571.25;;;12.74;100.00
70506;BME280;58032;49.820;6.274;2023-03-29T12:10:50;97566.47;;;12.98;100.00
70506;BME280;58032;49.820;6.274;2023-03-29T12:13:41;97561.34;;;13.21;100.00
70506;BME280;58032;49.820;6.274;2023-03-29T12:16:14;97565.47;;;13.54;100.00
70506;BME280;58032;49.820;6.274;2023-03-29T12:18:45;97565.00;;;13.46;100.00
70506;BME280;58032;49.820;6.274;2023-03-29T12:21:18;97569.91;;;13.45;100.00
70506;BME280;58032;49.820;6.274;2023-03-29T12:23:47;97575.34;;;13.16;100.00
70506;BME280;58032;49.820;6.274;2023-03-29T12:34:49;97568.94;;;12.44;100.00
70506;BME280;58032;49.820;6.274;2023-03-29T12:40:58;97573.25;;;12.92;100.00
70506;BME280;58032;49.820;6.274;2023-03-29T12:43:45;97573.75;;;12.81;100.00
70506;BME280;58032;49.820;6.274;2023-03-29T12:46:22;97579.59;;;12.49;100.00
70506;BME280;58032;49.820;6.274;2023-03-29T12:48:53;97579.91;;;12.61;100.00
70506;BME280;58032;49.820;6.274;2023-03-29T12:51:30;97584.03;;;12.41;100.00
70506;BME280;58032;49.820;6.274;2023-03-29T12:54:22;97576.22;;;13.31;100.00
70506;BME280;58032;49.820;6.274;2023-03-29T12:59:38;97564.84;;;13.07;100.00
70506;BME280;58032;49.820;6.274;2023-03-29T13:09:54;97565.44;;;13.20;100.00
70506;BME280;58032;49.820;6.274;2023-03-29T13:12:24;97569.19;;;13.60;100.00
70506;BME280;58032;49.820;6.274;2023-03-29T13:14:55;97561.41;;;13.70;100.00
70506;BME280;58032;49.820;6.274;2023-03-29T13:20:09;97559.00;;;13.20;100.00
70506;BME280;58032;49.820;6.274;2023-03-29T13:22:51;97544.81;;;12.95;100.00
70506;BME280;58032;49.820;6.274;2023-03-29T13:25:45;97543.63;;;12.69;100.00
70506;BME280;58032;49.820;6.274;2023-03-29T13:38:51;97531.34;;;13.24;100.00
70506;BME280;58032;49.820;6.274;2023-03-29T13:43:59;97536.53;;;13.16;100.00
70506;BME280;58032;49.820;6.274;2023-03-29T13:46:46;97546.97;;;13.34;100.00
70506;BME280;58032;49.820;6.274;2023-03-29T13:52:09;97540.63;;;13.15;100.00
70506;BME280;58032;49.820;6.274;2023-03-29T13:54:50;97540.22;;;12.46;100.00
70506;BME280;58032;49.820;6.274;2023-03-29T13:57:22;97548.06;;;12.51;100.00
70506;BME280;58032;49.820;6.274;2023-03-29T14:03:06;97531.34;;;13.57;100.00
70506;BME280;58032;49.820;6.274;2023-03-29T14:05:37;97527.25;;;13.58;100.00
70506;BME280;58032;49.820;6.274;2023-03-29T14:08:22;97521.41;;;13.28;100.00
70506;BME280;58032;49.820;6.274;2023-03-29T14:10:51;97524.81;;;13.66;100.00
70506;BME280;58032;49.820;6.274;2023-03-29T14:13:22;97515.03;;;13.52;100.00
70506;BME280;58032;49.820;6.274;2023-03-29T14:18:32;97511.13;;;12.73;100.00
70506;BME280;58032;49.820;6.274;2023-03-29T14:21:00;97516.16;;;12.69;100.00
70506;BME280;58032;49.820;6.274;2023-03-29T14:23:29;97510.44;;;12.88;100.00
70506;BME280;58032;49.820;6.274;2023-03-29T14:26:18;97499.41;;;12.99;100.00
70506;BME280;58032;49.820;6.274;2023-03-29T14:28:48;97504.41;;;13.04;100.00
70506;BME280;58032;49.820;6.274;2023-03-29T14:31:35;97504.53;;;13.43;100.00
70506;BME280;58032;49.820;6.274;2023-03-29T14:34:06;97492.75;;;13.69;100.00
70506;BME280;58032;49.820;6.274;2023-03-29T14:36:33;97488.00;;;13.51;100.00
70506;BME280;58032;49.820;6.274;2023-03-29T14:39:31;97500.75;;;13.71;100.00
70506;BME280;58032;49.820;6.274;2023-03-29T14:41:56;97499.91;;;13.55;100.00
70506;BME280;58032;49.820;6.274;2023-03-29T14:44:26;97488.31;;;13.20;100.00
70506;BME280;58032;49.820;6.274;2023-03-29T14:46:54;97497.44;;;12.90;100.00
70506;BME280;58032;49.820;6.274;2023-03-29T14:49:22;97486.81;;;13.09;100.00
70506;BME280;58032;49.820;6.274;2023-03-29T14:51:51;97487.16;;;13.02;100.00